sensor_id;sensor_type;location;lat;lon;timestamp;pressure;altitude;pressure_sealevel;temperature;humidity
56402;BME280;42299;35.160;26.100;2023-02-27T00:00:45;101424.97;;;17.84;98.06
56402;BME280;42299;35.160;26.100;2023-02-27T00:02:08;101424.06;;;17.83;98.72
56402;BME280;42299;35.160;26.100;2023-02-27T00:03:30;101413.38;;;17.80;100.00
56402;BME280;42299;35.160;26.100;2023-02-27T00:04:53;101396.47;;;17.80;99.87
56402;BME280;42299;35.160;26.100;2023-02-27T00:06:16;101399.13;;;17.80;100.00
56402;BME280;42299;35.160;26.100;2023-02-27T00:07:39;101387.59;;;17.76;100.00
56402;BME280;42299;35.160;26.100;2023-02-27T00:09:01;101408.97;;;17.75;100.00
56402;BME280;42299;35.160;26.100;2023-02-27T00:10:24;101392.97;;;17.72;100.00
56402;BME280;42299;35.160;26.100;2023-02-27T00:11:45;101372.47;;;17.68;100.00
56402;BME280;42299;35.160;26.100;2023-02-27T00:13:08;101368.03;;;17.67;100.00
56402;BME280;42299;35.160;26.100;2023-02-27T00:14:30;101370.72;;;17.62;100.00
56402;BME280;42299;35.160;26.100;2023-02-27T00:15:53;101355.56;;;17.60;100.00
56402;BME280;42299;35.160;26.100;2023-02-27T00:17:16;101360.94;;;17.57;100.00
56402;BME280;42299;35.160;26.100;2023-02-27T00:18:37;101353.81;;;17.54;100.00
56402;BME280;42299;35.160;26.100;2023-02-27T00:19:59;101362.72;;;17.51;100.00
56402;BME280;42299;35.160;26.100;2023-02-27T00:21:23;101352.94;;;17.49;100.00
56402;BME280;42299;35.160;26.100;2023-02-27T00:22:45;101371.63;;;17.46;100.00
56402;BME280;42299;35.160;26.100;2023-02-27T00:24:07;101381.44;;;17.42;100.00
56402;BME280;42299;35.160;26.100;2023-02-27T00:25:30;101392.09;;;17.39;100.00
56402;BME280;42299;35.160;26.100;2023-02-27T00:26:52;101371.66;;;17.35;100.00
56402;BME280;42299;35.160;26.100;2023-02-27T00:28:14;101393.00;;;17.35;100.00
56402;BME280;42299;35.160;26.100;2023-02-27T00:29:37;101417.03;;;17.35;100.00
56402;BME280;42299;35.160;26.100;2023-02-27T00:30:58;101409.03;;;17.38;100.00
56402;BME280;42299;35.160;26.100;2023-02-27T00:32:21;101420.59;;;17.42;100.00
56402;BME280;42299;35.160;26.100;2023-02-27T00:33:43;101431.28;;;17.45;100.00
56402;BME280;42299;35.160;26.100;2023-02-27T00:35:07;101426.78;;;17.47;100.00
56402;BME280;42299;35.160;26.100;2023-02-27T00:36:32;101450.84;;;17.50;100.00
56402;BME280;42299;35.160;26.100;2023-02-27T00:37:54;101445.50;;;17.50;100.00
56402;BME280;42299;35.160;26.100;2023-02-27T00:39:16;101441.03;;;17.50;99.91
56402;BME280;42299;35.160;26.100;2023-02-27T00:40:39;101441.03;;;17.53;99.10
56402;BME280;42299;35.160;26.100;2023-02-27T00:42:00;101443.69;;;17.55;96.39
56402;BME280;42299;35.160;26.100;2023-02-27T00:43:23;101444.59;;;17.56;95.26
56402;BME280;42299;35.160;26.100;2023-02-27T00:44:45;101434.78;;;17.56;93.91
56402;BME280;42299;35.160;26.100;2023-02-27T00:46:07;101445.44;;;17.59;91.36
56402;BME280;42299;35.160;26.100;2023-02-27T00:47:29;101445.47;;;17.58;89.05
56402;BME280;42299;35.160;26.100;2023-02-27T00:48:52;101433.03;;;17.61;88.20
56402;BME280;42299;35.160;26.100;2023-02-27T00:50:14;101431.25;;;17.63;85.82
56402;BME280;42299;35.160;26.100;2023-02-27T00:51:38;101430.34;;;17.69;84.66
56402;BME280;42299;35.160;26.100;2023-02-27T00:53:00;101430.34;;;17.69;83.18
56402;BME280;42299;35.160;26.100;2023-02-27T00:54:23;101418.78;;;17.68;83.57
56402;BME280;42299;35.160;26.100;2023-02-27T00:55:44;101415.22;;;17.66;84.03
56402;BME280;42299;35.160;26.100;2023-02-27T00:57:06;101415.22;;;17.63;84.21
56402;BME280;42299;35.160;26.100;2023-02-27T00:58:27;101416.97;;;17.60;84.04
56402;BME280;42299;35.160;26.100;2023-02-27T00:59:50;101425.91;;;17.56;82.32
56402;BME280;42299;35.160;26.100;2023-02-27T01:01:11;101418.78;;;17.54;82.02
56402;BME280;42299;35.160;26.100;2023-02-27T01:02:35;101410.78;;;17.51;85.90
56402;BME280;42299;35.160;26.100;2023-02-27T01:03:56;101409.88;;;17.46;89.48
56402;BME280;42299;35.160;26.100;2023-02-27T01:05:19;101416.13;;;17.42;88.78
56402;BME280;42299;35.160;26.100;2023-02-27T01:06:42;101418.78;;;17.39;87.07
56402;BME280;42299;35.160;26.100;2023-02-27T01:08:04;101409.91;;;17.34;89.53
56402;BME280;42299;35.160;26.100;2023-02-27T01:09:27;101409.94;;;17.31;91.91
56402;BME280;42299;35.160;26.100;2023-02-27T01:10:49;101401.06;;;17.26;93.71
56402;BME280;42299;35.160;26.100;2023-02-27T01:12:11;101382.34;;;17.20;89.88
56402;BME280;42299;35.160;26.100;2023-02-27T01:13:34;101389.47;;;17.27;75.53
56402;BME280;42299;35.160;26.100;2023-02-27T01:14:57;101384.09;;;17.33;71.36
56402;BME280;42299;35.160;26.100;2023-02-27T01:16:18;101386.75;;;17.39;62.50
56402;BME280;42299;35.160;26.100;2023-02-27T01:17:40;101380.53;;;17.43;60.14
56402;BME280;42299;35.160;26.100;2023-02-27T01:19:02;101368.06;;;17.48;53.82
56402;BME280;42299;35.160;26.100;2023-02-27T01:20:24;101376.06;;;17.62;52.98
56402;BME280;42299;35.160;26.100;2023-02-27T01:21:48;101353.78;;;17.66;53.11
56402;BME280;42299;35.160;26.100;2023-02-27T01:23:09;101375.16;;;17.68;50.14
56402;BME280;42299;35.160;26.100;2023-02-27T01:24:31;101360.91;;;17.72;50.10
56402;BME280;42299;35.160;26.100;2023-02-27T01:25:54;101359.09;;;17.77;48.68
56402;BME280;42299;35.160;26.100;2023-02-27T01:27:15;101349.31;;;17.77;49.05
56402;BME280;42299;35.160;26.100;2023-02-27T01:28:37;101342.19;;;17.78;48.72
56402;BME280;42299;35.160;26.100;2023-02-27T01:30:00;101343.94;;;17.85;47.34
56402;BME280;42299;35.160;26.100;2023-02-27T01:31:21;101350.09;;;17.95;45.98
56402;BME280;42299;35.160;26.100;2023-02-27T01:32:43;101339.38;;;18.01;45.35
56402;BME280;42299;35.160;26.100;2023-02-27T01:34:06;101342.00;;;18.08;44.76
56402;BME280;42299;35.160;26.100;2023-02-27T01:35:27;101341.97;;;18.13;45.05
56402;BME280;42299;35.160;26.100;2023-02-27T01:36:51;101337.53;;;18.13;45.35
56402;BME280;42299;35.160;26.100;2023-02-27T01:38:12;101334.88;;;18.09;45.23
56402;BME280;42299;35.160;26.100;2023-02-27T01:39:36;101332.22;;;18.07;46.11
56402;BME280;42299;35.160;26.100;2023-02-27T01:41:00;101343.78;;;18.09;46.42
56402;BME280;42299;35.160;26.100;2023-02-27T01:42:24;101357.13;;;18.12;47.34
56402;BME280;42299;35.160;26.100;2023-02-27T01:43:56;101364.28;;;18.07;47.99
56402;BME280;42299;35.160;26.100;2023-02-27T01:45:28;101367.00;;;18.03;49.14
56402;BME280;42299;35.160;26.100;2023-02-27T01:46:51;101368.81;;;17.96;49.72
56402;BME280;42299;35.160;26.100;2023-02-27T01:48:16;101359.91;;;17.94;49.93
56402;BME280;42299;35.160;26.100;2023-02-27T01:49:38;101359.91;;;17.92;49.81
56402;BME280;42299;35.160;26.100;2023-02-27T01:51:03;101359.00;;;17.92;49.25
56402;BME280;42299;35.160;26.100;2023-02-27T01:52:29;101363.47;;;17.93;49.55
56402;BME280;42299;35.160;26.100;2023-02-27T01:53:53;101345.66;;;17.93;49.22
56402;BME280;42299;35.160;26.100;2023-02-27T01:55:16;101365.22;;;18.02;47.35
56402;BME280;42299;35.160;26.100;2023-02-27T01:56:38;101360.72;;;18.07;47.10
56402;BME280;42299;35.160;26.100;2023-02-27T01:58:01;101369.63;;;18.10;47.06
56402;BME280;42299;35.160;26.100;2023-02-27T01:59:23;101374.06;;;18.13;45.96
56402;BME280;42299;35.160;26.100;2023-02-27T02:00:46;101374.06;;;18.16;46.23
56402;BME280;42299;35.160;26.100;2023-02-27T02:02:12;101367.81;;;18.15;46.30
56402;BME280;42299;35.160;26.100;2023-02-27T02:03:38;101370.47;;;18.17;46.02
56402;BME280;42299;35.160;26.100;2023-02-27T02:05:05;101377.56;;;18.19;45.60
56402;BME280;42299;35.160;26.100;2023-02-27T02:06:32;101376.69;;;18.20;46.05
56402;BME280;42299;35.160;26.100;2023-02-27T02:07:57;101362.44;;;18.20;46.09
56402;BME280;42299;35.160;26.100;2023-02-27T02:09:20;101367.78;;;18.21;46.30
56402;BME280;42299;35.160;26.100;2023-02-27T02:10:44;101362.44;;;18.24;45.97
56402;BME280;42299;35.160;26.100;2023-02-27T02:12:07;101351.72;;;18.24;46.38
56402;BME280;42299;35.160;26.100;2023-02-27T02:13:31;101371.34;;;18.22;47.03
56402;BME280;42299;35.160;26.100;2023-02-27T02:14:52;101358.88;;;18.22;46.93
56402;BME280;42299;35.160;26.100;2023-02-27T02:16:34;101368.63;;;18.26;46.40
56402;BME280;42299;35.160;26.100;2023-02-27T02:18:09;101370.38;;;18.32;47.07
56402;BME280;42299;35.160;26.100;2023-02-27T02:19:54;101383.69;;;18.40;47.08
56402;BME280;42299;35.160;26.100;2023-02-27T02:23:51;101380.13;;;18.39;48.53
56402;BME280;42299;35.160;26.100;2023-02-27T02:27:28;101370.38;;;18.33;50.33
56402;BME280;42299;35.160;26.100;2023-02-27T02:29:40;101389.97;;;18.32;50.99
56402;BME280;42299;35.160;26.100;2023-02-27T02:33:27;101385.56;;;18.28;52.47
56402;BME280;42299;35.160;26.100;2023-02-27T02:35:00;101373.13;;;18.21;52.23
56402;BME280;42299;35.160;26.100;2023-02-27T02:37:01;101381.06;;;18.32;51.34
56402;BME280;42299;35.160;26.100;2023-02-27T02:40:29;101392.59;;;18.39;52.87
56402;BME280;42299;35.160;26.100;2023-02-27T02:41:59;101377.50;;;18.38;53.67
56402;BME280;42299;35.160;26.100;2023-02-27T02:43:28;101388.19;;;18.35;54.70
56402;BME280;42299;35.160;26.100;2023-02-27T02:44:56;101387.28;;;18.34;55.89
56402;BME280;42299;35.160;26.100;2023-02-27T02:46:30;101365.94;;;18.29;57.34
56402;BME280;42299;35.160;26.100;2023-02-27T02:48:02;101362.38;;;18.26;58.38
56402;BME280;42299;35.160;26.100;2023-02-27T02:49:26;101354.38;;;18.27;58.90
56402;BME280;42299;35.160;26.100;2023-02-27T02:50:55;101327.59;;;18.35;59.48
56402;BME280;42299;35.160;26.100;2023-02-27T02:52:26;101340.03;;;18.39;60.28
56402;BME280;42299;35.160;26.100;2023-02-27T02:53:55;101330.22;;;18.41;61.31
56402;BME280;42299;35.160;26.100;2023-02-27T02:55:25;101323.09;;;18.42;62.32
56402;BME280;42299;35.160;26.100;2023-02-27T02:56:53;101331.94;;;18.45;63.12
56402;BME280;42299;35.160;26.100;2023-02-27T02:58:21;101324.78;;;18.52;63.65
56402;BME280;42299;35.160;26.100;2023-02-27T02:59:52;101325.69;;;18.55;64.16
56402;BME280;42299;35.160;26.100;2023-02-27T03:01:17;101347.97;;;18.56;64.99
56402;BME280;42299;35.160;26.100;2023-02-27T03:02:46;101365.78;;;18.57;65.10
56402;BME280;42299;35.160;26.100;2023-02-27T03:04:13;101358.66;;;18.56;65.50
56402;BME280;42299;35.160;26.100;2023-02-27T03:05:39;101372.91;;;18.55;66.05
56402;BME280;42299;35.160;26.100;2023-02-27T03:07:07;101367.56;;;18.52;66.83
56402;BME280;42299;35.160;26.100;2023-02-27T03:08:35;101394.34;;;18.50;67.40
56402;BME280;42299;35.160;26.100;2023-02-27T03:10:02;101389.88;;;18.51;67.87
56402;BME280;42299;35.160;26.100;2023-02-27T03:11:30;101403.25;;;18.46;70.39
56402;BME280;42299;35.160;26.100;2023-02-27T03:12:58;101415.78;;;18.40;73.06
56402;BME280;42299;35.160;26.100;2023-02-27T03:14:26;101428.28;;;18.31;77.39
56402;BME280;42299;35.160;26.100;2023-02-27T03:15:55;101419.44;;;18.19;84.13
56402;BME280;42299;35.160;26.100;2023-02-27T03:17:25;101432.00;;;18.05;89.84
56402;BME280;42299;35.160;26.100;2023-02-27T03:18:53;101416.94;;;17.91;96.82
56402;BME280;42299;35.160;26.100;2023-02-27T03:20:21;101416.94;;;17.79;100.00
56402;BME280;42299;35.160;26.100;2023-02-27T03:21:47;101417.00;;;17.67;100.00
56402;BME280;42299;35.160;26.100;2023-02-27T03:23:15;101404.53;;;17.59;100.00
56402;BME280;42299;35.160;26.100;2023-02-27T03:24:40;101393.88;;;17.49;100.00
56402;BME280;42299;35.160;26.100;2023-02-27T03:26:06;101409.00;;;17.41;100.00
56402;BME280;42299;35.160;26.100;2023-02-27T03:27:36;101394.78;;;17.35;100.00
56402;BME280;42299;35.160;26.100;2023-02-27T03:29:01;101393.91;;;17.28;100.00
56402;BME280;42299;35.160;26.100;2023-02-27T03:30:29;101405.50;;;17.24;100.00
56402;BME280;42299;35.160;26.100;2023-02-27T03:31:56;101406.38;;;17.22;100.00
56402;BME280;42299;35.160;26.100;2023-02-27T03:33:23;101402.84;;;17.18;100.00
56402;BME280;42299;35.160;26.100;2023-02-27T03:34:48;101409.94;;;17.16;100.00
56402;BME280;42299;35.160;26.100;2023-02-27T03:36:15;101396.59;;;17.18;100.00
56402;BME280;42299;35.160;26.100;2023-02-27T03:37:52;101406.38;;;17.14;100.00
56402;BME280;42299;35.160;26.100;2023-02-27T03:39:23;101411.75;;;17.11;100.00
56402;BME280;42299;35.160;26.100;2023-02-27T03:40:52;101399.28;;;17.10;100.00
56402;BME280;42299;35.160;26.100;2023-02-27T03:42:34;101398.41;;;17.05;100.00
56402;BME280;42299;35.160;26.100;2023-02-27T03:44:10;101393.94;;;17.02;100.00
56402;BME280;42299;35.160;26.100;2023-02-27T03:45:39;101401.06;;;17.02;100.00
56402;BME280;42299;35.160;26.100;2023-02-27T03:47:03;101409.06;;;17.00;100.00
56402;BME280;42299;35.160;26.100;2023-02-27T03:48:26;101415.28;;;17.02;100.00
56402;BME280;42299;35.160;26.100;2023-02-27T03:49:48;101421.50;;;17.03;100.00
56402;BME280;42299;35.160;26.100;2023-02-27T03:51:14;101418.84;;;17.01;100.00
56402;BME280;42299;35.160;26.100;2023-02-27T03:52:38;101425.09;;;16.99;100.00
56402;BME280;42299;35.160;26.100;2023-02-27T03:54:08;101418.84;;;16.95;100.00
56402;BME280;42299;35.160;26.100;2023-02-27T03:55:37;101414.41;;;16.93;100.00
56402;BME280;42299;35.160;26.100;2023-02-27T03:57:01;101420.63;;;16.90;100.00
56402;BME280;42299;35.160;26.100;2023-02-27T03:58:26;101409.94;;;16.87;100.00
56402;BME280;42299;35.160;26.100;2023-02-27T03:59:48;101422.41;;;16.85;100.00
56402;BME280;42299;35.160;26.100;2023-02-27T04:01:11;101417.94;;;16.83;100.00
56402;BME280;42299;35.160;26.100;2023-02-27T04:02:32;101417.94;;;16.81;100.00
56402;BME280;42299;35.160;26.100;2023-02-27T04:03:59;101411.72;;;16.81;100.00
56402;BME280;42299;35.160;26.100;2023-02-27T04:05:42;101425.97;;;16.80;100.00
56402;BME280;42299;35.160;26.100;2023-02-27T04:07:08;101421.53;;;16.79;100.00
56402;BME280;42299;35.160;26.100;2023-02-27T04:08:50;101414.41;;;16.78;100.00
56402;BME280;42299;35.160;26.100;2023-02-27T04:10:30;101426.84;;;16.77;100.00
56402;BME280;42299;35.160;26.100;2023-02-27T04:12:18;101405.53;;;16.79;100.00
56402;BME280;42299;35.160;26.100;2023-02-27T04:13:55;101419.72;;;16.81;100.00
56402;BME280;42299;35.160;26.100;2023-02-27T04:15:29;101404.59;;;16.81;100.00
56402;BME280;42299;35.160;26.100;2023-02-27T04:17:16;101389.50;;;16.82;100.00
56402;BME280;42299;35.160;26.100;2023-02-27T04:18:53;101401.94;;;16.81;100.00
56402;BME280;42299;35.160;26.100;2023-02-27T04:20:23;101390.38;;;16.82;100.00
56402;BME280;42299;35.160;26.100;2023-02-27T04:21:55;101374.41;;;16.84;100.00
56402;BME280;42299;35.160;26.100;2023-02-27T04:23:27;101379.75;;;16.85;100.00
56402;BME280;42299;35.160;26.100;2023-02-27T04:24:57;101376.19;;;16.86;100.00
56402;BME280;42299;35.160;26.100;2023-02-27T04:26:27;101385.94;;;16.89;100.00
56402;BME280;42299;35.160;26.100;2023-02-27T04:27:56;101393.94;;;16.89;100.00
56402;BME280;42299;35.160;26.100;2023-02-27T04:29:33;101403.72;;;16.90;100.00
56402;BME280;42299;35.160;26.100;2023-02-27T04:31:04;101402.84;;;16.89;100.00
56402;BME280;42299;35.160;26.100;2023-02-27T04:32:34;101416.16;;;16.88;100.00
56402;BME280;42299;35.160;26.100;2023-02-27T04:34:02;101408.19;;;16.86;100.00
56402;BME280;42299;35.160;26.100;2023-02-27T04:35:31;101433.97;;;16.86;100.00
56402;BME280;42299;35.160;26.100;2023-02-27T04:36:56;101439.31;;;16.86;100.00
56402;BME280;42299;35.160;26.100;2023-02-27T04:38:25;101458.84;;;16.85;100.00
56402;BME280;42299;35.160;26.100;2023-02-27T04:39:52;101463.31;;;16.84;100.00
56402;BME280;42299;35.160;26.100;2023-02-27T04:41:20;101447.28;;;16.83;100.00
56402;BME280;42299;35.160;26.100;2023-02-27T04:42:46;101442.84;;;16.83;100.00
56402;BME280;42299;35.160;26.100;2023-02-27T04:44:12;101451.75;;;16.84;100.00
56402;BME280;42299;35.160;26.100;2023-02-27T04:45:38;101451.75;;;16.84;100.00
56402;BME280;42299;35.160;26.100;2023-02-27T04:47:03;101445.53;;;16.85;100.00
56402;BME280;42299;35.160;26.100;2023-02-27T04:48:30;101439.28;;;16.87;100.00
56402;BME280;42299;35.160;26.100;2023-02-27T04:49:59;101441.09;;;16.87;100.00
56402;BME280;42299;35.160;26.100;2023-02-27T04:51:25;101438.41;;;16.87;100.00
56402;BME280;42299;35.160;26.100;2023-02-27T04:52:51;101442.88;;;16.86;100.00
56402;BME280;42299;35.160;26.100;2023-02-27T04:54:20;101452.63;;;16.86;100.00
56402;BME280;42299;35.160;26.100;2023-02-27T04:55:46;101457.97;;;16.86;100.00
56402;BME280;42299;35.160;26.100;2023-02-27T04:57:15;101458.84;;;16.85;100.00
56402;BME280;42299;35.160;26.100;2023-02-27T04:58:41;101448.19;;;16.85;100.00
56402;BME280;42299;35.160;26.100;2023-02-27T05:00:09;101435.75;;;16.84;100.00
56402;BME280;42299;35.160;26.100;2023-02-27T05:01:38;101461.53;;;16.86;100.00
56402;BME280;42299;35.160;26.100;2023-02-27T05:03:08;101442.84;;;16.88;100.00
56402;BME280;42299;35.160;26.100;2023-02-27T05:04:34;101455.31;;;16.86;100.00
56402;BME280;42299;35.160;26.100;2023-02-27T05:06:00;101458.84;;;16.88;100.00
56402;BME280;42299;35.160;26.100;2023-02-27T05:07:25;101450.84;;;16.88;100.00
56402;BME280;42299;35.160;26.100;2023-02-27T05:08:53;101454.41;;;16.90;100.00
56402;BME280;42299;35.160;26.100;2023-02-27T05:10:25;101455.28;;;16.89;100.00
56402;BME280;42299;35.160;26.100;2023-02-27T05:11:53;101451.75;;;16.90;100.00
56402;BME280;42299;35.160;26.100;2023-02-27T05:13:20;101468.66;;;16.92;100.00
56402;BME280;42299;35.160;26.100;2023-02-27T05:14:48;101467.75;;;16.93;100.00
56402;BME280;42299;35.160;26.100;2023-02-27T05:16:17;101470.44;;;16.93;100.00
56402;BME280;42299;35.160;26.100;2023-02-27T05:17:44;101468.63;;;16.95;100.00
56402;BME280;42299;35.160;26.100;2023-02-27T05:19:08;101463.31;;;16.96;100.00
56402;BME280;42299;35.160;26.100;2023-02-27T05:20:35;101462.41;;;16.97;100.00
56402;BME280;42299;35.160;26.100;2023-02-27T05:22:10;101470.44;;;16.99;100.00
56402;BME280;42299;35.160;26.100;2023-02-27T05:23:38;101466.00;;;16.99;100.00
56402;BME280;42299;35.160;26.100;2023-02-27T05:25:09;101476.63;;;17.01;100.00
56402;BME280;42299;35.160;26.100;2023-02-27T05:26:44;101465.09;;;17.02;100.00
56402;BME280;42299;35.160;26.100;2023-02-27T05:28:10;101470.41;;;17.02;100.00
56402;BME280;42299;35.160;26.100;2023-02-27T05:29:41;101471.31;;;17.04;100.00
56402;BME280;42299;35.160;26.100;2023-02-27T05:31:10;101490.88;;;17.04;100.00
56402;BME280;42299;35.160;26.100;2023-02-27T05:32:41;101486.44;;;17.06;100.00
56402;BME280;42299;35.160;26.100;2023-02-27T05:34:09;101498.88;;;17.07;100.00
56402;BME280;42299;35.160;26.100;2023-02-27T05:35:37;101505.13;;;17.11;100.00
56402;BME280;42299;35.160;26.100;2023-02-27T05:37:07;101530.03;;;17.11;100.00
56402;BME280;42299;35.160;26.100;2023-02-27T05:38:33;101514.88;;;17.13;100.00
56402;BME280;42299;35.160;26.100;2023-02-27T05:39:59;101514.03;;;17.13;100.00
56402;BME280;42299;35.160;26.100;2023-02-27T05:41:30;101522.00;;;17.16;100.00
56402;BME280;42299;35.160;26.100;2023-02-27T05:42:58;101523.81;;;17.17;100.00
56402;BME280;42299;35.160;26.100;2023-02-27T05:44:25;101516.69;;;17.19;100.00
56402;BME280;42299;35.160;26.100;2023-02-27T05:45:55;101523.81;;;17.19;100.00
56402;BME280;42299;35.160;26.100;2023-02-27T05:47:22;101546.91;;;17.21;100.00
56402;BME280;42299;35.160;26.100;2023-02-27T05:48:51;101561.16;;;17.22;100.00
56402;BME280;42299;35.160;26.100;2023-02-27T05:50:18;101567.41;;;17.24;100.00
56402;BME280;42299;35.160;26.100;2023-02-27T05:51:45;101566.53;;;17.26;100.00
56402;BME280;42299;35.160;26.100;2023-02-27T05:53:12;101568.28;;;17.29;100.00
56402;BME280;42299;35.160;26.100;2023-02-27T05:54:41;101564.75;;;17.31;100.00
56402;BME280;42299;35.160;26.100;2023-02-27T05:56:07;101573.63;;;17.32;100.00
56402;BME280;42299;35.160;26.100;2023-02-27T05:57:34;101572.75;;;17.36;100.00
56402;BME280;42299;35.160;26.100;2023-02-27T05:59:00;101582.53;;;17.38;100.00
56402;BME280;42299;35.160;26.100;2023-02-27T06:00:30;101574.50;;;17.40;100.00
56402;BME280;42299;35.160;26.100;2023-02-27T06:01:55;101574.53;;;17.41;100.00
56402;BME280;42299;35.160;26.100;2023-02-27T06:03:18;101587.88;;;17.43;100.00
56402;BME280;42299;35.160;26.100;2023-02-27T06:04:41;101586.09;;;17.45;100.00
56402;BME280;42299;35.160;26.100;2023-02-27T06:06:05;101585.19;;;17.47;100.00
56402;BME280;42299;35.160;26.100;2023-02-27T06:07:30;101581.66;;;17.50;100.00
56402;BME280;42299;35.160;26.100;2023-02-27T06:08:51;101595.91;;;17.52;100.00
56402;BME280;42299;35.160;26.100;2023-02-27T06:10:15;101589.66;;;17.54;100.00
56402;BME280;42299;35.160;26.100;2023-02-27T06:11:39;101592.34;;;17.58;100.00
56402;BME280;42299;35.160;26.100;2023-02-27T06:13:01;101587.88;;;17.60;100.00
56402;BME280;42299;35.160;26.100;2023-02-27T06:14:23;101577.22;;;17.63;100.00
56402;BME280;42299;35.160;26.100;2023-02-27T06:15:46;101571.00;;;17.65;100.00
56402;BME280;42299;35.160;26.100;2023-02-27T06:17:09;101569.22;;;17.67;100.00
56402;BME280;42299;35.160;26.100;2023-02-27T06:18:31;101560.31;;;17.71;100.00
56402;BME280;42299;35.160;26.100;2023-02-27T06:19:56;101565.66;;;17.76;100.00
56402;BME280;42299;35.160;26.100;2023-02-27T06:21:18;101572.78;;;17.77;100.00
56402;BME280;42299;35.160;26.100;2023-02-27T06:22:40;101569.19;;;17.81;100.00
56402;BME280;42299;35.160;26.100;2023-02-27T06:24:02;101576.31;;;17.82;100.00
56402;BME280;42299;35.160;26.100;2023-02-27T06:25:24;101581.69;;;17.85;100.00
56402;BME280;42299;35.160;26.100;2023-02-27T06:26:46;101580.78;;;17.87;100.00
56402;BME280;42299;35.160;26.100;2023-02-27T06:28:09;101585.22;;;17.90;100.00
56402;BME280;42299;35.160;26.100;2023-02-27T06:29:32;101581.69;;;17.91;100.00
56402;BME280;42299;35.160;26.100;2023-02-27T06:30:54;101572.75;;;17.92;100.00
56402;BME280;42299;35.160;26.100;2023-02-27T06:32:17;101565.63;;;17.97;100.00
56402;BME280;42299;35.160;26.100;2023-02-27T06:33:39;101585.22;;;17.98;100.00
56402;BME280;42299;35.160;26.100;2023-02-27T06:35:03;101569.16;;;18.01;100.00
56402;BME280;42299;35.160;26.100;2023-02-27T06:36:26;101577.19;;;18.04;100.00
56402;BME280;42299;35.160;26.100;2023-02-27T06:37:49;101573.59;;;18.06;100.00
56402;BME280;42299;35.160;26.100;2023-02-27T06:39:11;101568.28;;;18.09;100.00
56402;BME280;42299;35.160;26.100;2023-02-27T06:40:34;101573.63;;;18.09;100.00
56402;BME280;42299;35.160;26.100;2023-02-27T06:41:58;101563.81;;;18.11;100.00
56402;BME280;42299;35.160;26.100;2023-02-27T06:43:21;101568.25;;;18.14;100.00
56402;BME280;42299;35.160;26.100;2023-02-27T06:44:44;101566.47;;;18.16;100.00
56402;BME280;42299;35.160;26.100;2023-02-27T06:46:06;101569.13;;;18.19;100.00
56402;BME280;42299;35.160;26.100;2023-02-27T06:47:29;101565.56;;;18.21;100.00
56402;BME280;42299;35.160;26.100;2023-02-27T06:48:51;101569.13;;;18.23;100.00
56402;BME280;42299;35.160;26.100;2023-02-27T06:50:15;101569.09;;;18.28;100.00
56402;BME280;42299;35.160;26.100;2023-02-27T06:51:37;101549.47;;;18.33;100.00
56402;BME280;42299;35.160;26.100;2023-02-27T06:53:00;101566.41;;;18.37;100.00
56402;BME280;42299;35.160;26.100;2023-02-27T06:54:22;101562.81;;;18.40;100.00
56402;BME280;42299;35.160;26.100;2023-02-27T06:55:45;101564.59;;;18.41;100.00
56402;BME280;42299;35.160;26.100;2023-02-27T06:57:08;101538.72;;;18.46;100.00
56402;BME280;42299;35.160;26.100;2023-02-27T06:58:30;101546.75;;;18.46;100.00
56402;BME280;42299;35.160;26.100;2023-02-27T06:59:52;101535.16;;;18.50;100.00
56402;BME280;42299;35.160;26.100;2023-02-27T07:01:15;101528.00;;;18.53;100.00
56402;BME280;42299;35.160;26.100;2023-02-27T07:02:38;101531.56;;;18.54;100.00
56402;BME280;42299;35.160;26.100;2023-02-27T07:04:00;101525.38;;;18.56;100.00
56402;BME280;42299;35.160;26.100;2023-02-27T07:05:24;101507.50;;;18.60;100.00
56402;BME280;42299;35.160;26.100;2023-02-27T07:06:46;101497.69;;;18.62;100.00
56402;BME280;42299;35.160;26.100;2023-02-27T07:08:08;101484.28;;;18.65;100.00
56402;BME280;42299;35.160;26.100;2023-02-27T07:09:31;101484.28;;;18.66;100.00
56402;BME280;42299;35.160;26.100;2023-02-27T07:10:53;101483.38;;;18.70;100.00
56402;BME280;42299;35.160;26.100;2023-02-27T07:12:15;101478.00;;;18.74;100.00
56402;BME280;42299;35.160;26.100;2023-02-27T07:13:37;101461.03;;;18.78;100.00
56402;BME280;42299;35.160;26.100;2023-02-27T07:14:59;101478.81;;;18.85;100.00
56402;BME280;42299;35.160;26.100;2023-02-27T07:16:21;101473.41;;;18.92;100.00
56402;BME280;42299;35.160;26.100;2023-02-27T07:17:43;101469.84;;;18.96;100.00
56402;BME280;42299;35.160;26.100;2023-02-27T07:19:05;101467.13;;;18.99;100.00
56402;BME280;42299;35.160;26.100;2023-02-27T07:20:29;101457.28;;;19.03;100.00
56402;BME280;42299;35.160;26.100;2023-02-27T07:21:51;101466.19;;;19.05;100.00
56402;BME280;42299;35.160;26.100;2023-02-27T07:23:14;101467.94;;;19.09;100.00
56402;BME280;42299;35.160;26.100;2023-02-27T07:24:36;101456.31;;;19.11;100.00
56402;BME280;42299;35.160;26.100;2023-02-27T07:25:58;101467.00;;;19.16;100.00
56402;BME280;42299;35.160;26.100;2023-02-27T07:27:21;101491.94;;;19.20;100.00
56402;BME280;42299;35.160;26.100;2023-02-27T07:28:43;101508.84;;;19.26;100.00